Flight Track Log - Related Links

Times and Time Zones

All times are in EDT time to prevent confusion due to time zone crossing. See the ASQ5941 flight status page for this flight to view local times or setup timezone preferences in your user account.

Time Position Orientation Groundspeed Altitude Reporting Facility
EDT Latitude Longitude Course Direction KTS MPH feet Rate Location/Type
Tue 03:29:47 PM 41.9672 -87.9436 80° East 183 211 35,000  Level Chicago Center
Tue 03:30:05 PM 41.9667 -87.9667 268° West 193 222 2,800 -23,231 Descending Chicago TRACON
Tue 03:31:05 PM 42.0167 -87.9500 14° North 241 277 4,800 1,893 Climbing Chicago TRACON
Tue 03:32:00 PM 42.0434 -87.4402 83° East  Level FlightAware Approximate
Tue 03:32:53 PM 42.0425 -87.7703 79° East 299 344 8,100  Level Chicago Center
Tue 03:33:00 PM 42.0630 -87.2827 78° East  Level FlightAware Approximate
Tue 03:33:54 PM 42.0539 -87.6558 82° East 308 354 10,400  Level Chicago Center
Tue 03:34:00 PM 42.0873 -87.1263 77° East  Level FlightAware Approximate
Tue 03:34:56 PM 42.0658 -87.5394 82° East 314 361 12,200  Level Chicago Center
Tue 03:35:00 PM 42.1039 -86.9688 80° East  Level FlightAware Approximate
Tue 03:35:58 PM 42.0786 -87.4136 82° East 336 387 13,300  Level Chicago Center
Tue 03:37:00 PM 42.0925 -87.2739 82° East 372 428 14,000 774 Climbing Chicago Center
Tue 03:38:02 PM 42.1092 -87.0953 83° East 399 459 14,900 968 Climbing Chicago Center
Tue 03:39:04 PM 42.1186 -86.9439 85° East 405 466 16,000 1,016 Climbing Chicago Center
Tue 03:40:06 PM 42.1239 -86.7883 87° East 413 475 17,000 968 Climbing Chicago Center
Tue 03:41:08 PM 42.1278 -86.6283 88° East 424 488 18,000 968 Climbing Chicago Center
Tue 03:42:10 PM 42.1331 -86.4703 87° East 423 487 19,000 968 Climbing Chicago Center
Tue 03:43:12 PM 42.1383 -86.3106 87° East 427 491 20,000 1,016 Climbing Chicago Center
Tue 03:44:14 PM 42.1436 -86.1475 87° East 434 499 21,100 1,161 Climbing Chicago Center
Tue 03:45:16 PM 42.1436 -85.9633 90° East 438 504 22,400 1,210 Climbing Chicago Center
Tue 03:46:18 PM 42.1419 -85.8036 91° East 432 497 23,600 1,161 Climbing Chicago Center
Tue 03:47:20 PM 42.1394 -85.6403 91° East 436 502 24,800 1,210 Climbing Chicago Center
Tue 03:48:22 PM 42.1383 -85.4450 90° East 437 503 26,100 1,059 Climbing Chicago Center
Tue 03:49:02 PM 42.1403 -85.3500 88° East 451 519 26,600 900 Climbing Cleveland Center
Tue 03:50:02 PM 42.1367 -85.1844 92° East 451 519 27,600 1,000 Climbing Cleveland Center
Tue 03:51:02 PM 42.1350 -85.0161 91° East 451 519 28,600 1,000 Climbing Cleveland Center
Tue 03:52:02 PM 42.1308 -84.8506 92° East 451 519 29,600 1,000 Climbing Cleveland Center
Tue 03:53:02 PM 42.1286 -84.6797 91° East 451 519 30,600 1,000 Climbing Cleveland Center
Tue 03:54:02 PM 42.1242 -84.5058 92° East 451 519 31,600 1,050 Climbing Cleveland Center
Tue 03:55:02 PM 42.1389 -84.3161 84° East 457 526 32,700 750 Climbing Cleveland Center
Tue 03:56:02 PM 42.1592 -84.1353 81° East 468 539 33,100 700 Climbing Cleveland Center
Tue 03:57:02 PM 42.1772 -83.9569 82° East 478 550 34,100 950 Climbing Cleveland Center
Tue 03:58:02 PM 42.1969 -83.7756 82° East 483 556 35,000 450 Climbing Cleveland Center
Tue 03:59:02 PM 42.2186 -83.5889 81° East 483 556 35,000  Level Cleveland Center
Tue 04:00:02 PM 42.2272 -83.4183 86° East 499 574 35,000  Level Cleveland Center
Tue 04:01:02 PM 42.2300 -83.2081 89° East 499 574 35,000  Level Cleveland Center
Tue 04:02:03 PM 42.2319 -83.0286 89° East 513 590 35,000  Level Cleveland Center
Tue 04:03:02 PM 42.2339 -82.8350 89° East 518 596 35,000  Level Cleveland Center
Tue 04:04:02 PM 42.2333 -82.6417 90° East 518 596 35,000  Level Cleveland Center
Tue 04:05:02 PM 42.2325 -82.4453 90° East 518 596 35,000  Level Cleveland Center
Tue 04:06:02 PM 42.2292 -82.2489 91° East 518 596 35,000  Level Cleveland Center
Tue 04:07:02 PM 42.2175 -82.0383 94° East 513 590 35,000  Level Cleveland Center
Tue 04:08:02 PM 42.2050 -81.8614 95° East 522 601 35,000  Level Cleveland Center
Tue 04:09:02 PM 42.1925 -81.6622 95° East 522 601 35,000  Level Cleveland Center
Tue 04:10:02 PM 42.1775 -81.4686 96° East 523 602 35,000  Level Cleveland Center
Tue 04:11:02 PM 42.1642 -81.2722 95° East 523 602 35,000  Level Cleveland Center
Tue 04:12:02 PM 42.1506 -81.0789 95° East 523 602 35,000  Level Cleveland Center
Tue 04:13:02 PM 42.1347 -80.8603 96° East 529 609 35,000  Level Cleveland Center
Tue 04:14:02 PM 42.1183 -80.6672 96° East 523 602 35,000  Level Cleveland Center
Tue 04:15:02 PM 42.1039 -80.4711 96° East 523 602 35,000  Level Cleveland Center
Tue 04:16:02 PM 42.0889 -80.2753 96° East 523 602 35,000  Level Cleveland Center
Tue 04:17:02 PM 42.0714 -80.0797 97° East 522 601 35,000  Level Cleveland Center
Tue 04:18:02 PM 42.0581 -79.9036 96° East 522 601 35,000  Level Cleveland Center
Tue 04:19:04 PM 42.0400 -79.7136 97° East 522 601 35,000  Level Cleveland Center
Tue 04:20:02 PM 42.0239 -79.5183 96° East 522 601 35,000 -153 Level Cleveland Center
Tue 04:21:02 PM 42.0072 -79.3258 97° East 522 601 34,700 -700 Descending Cleveland Center
Tue 04:22:02 PM 41.9883 -79.1333 97° East 522 601 33,600 -1,100 Descending Cleveland Center
Tue 04:23:02 PM 41.9689 -78.9272 97° East 522 601 32,500 -1,300 Descending Cleveland Center
Tue 04:24:02 PM 41.9558 -78.7572 96° East 517 595 31,000 -1,400 Descending Cleveland Center
Tue 04:25:02 PM 41.9364 -78.5789 98° East 504 580 29,700 -1,833 Descending Cleveland Center
Tue 04:27:02 PM 41.9025 -78.2286 97° East 479 551 25,500 -1,661 Descending Cleveland Center
Tue 04:29:04 PM 41.8686 -77.8847 97° East 440 506 23,000 -820 Descending New York Center
Tue 04:30:05 PM 41.8192 -77.7347 114° Southeast 435 501 23,000  Level New York Center
Tue 04:31:03 PM 41.7611 -77.5867 118° Southeast 435 501 23,000  Level New York Center
Tue 04:32:03 PM 41.7061 -77.4561 119° Southeast 449 517 23,000 -496 Level New York Center
Tue 04:33:04 PM 41.6769 -77.2697 102° East 448 516 22,000 -1,488 Descending New York Center
Tue 04:34:04 PM 41.6603 -77.1125 98° East 443 510 20,000 -1,983 Descending New York Center
Tue 04:35:05 PM 41.6433 -76.9611 98° East 431 496 18,000 -1,785 Descending New York Center
Tue 04:36:05 PM 41.6283 -76.8097 98° East 419 482 16,400 -1,525 Descending New York Center
Tue 04:37:03 PM 41.6125 -76.6642 98° East 407 468 15,000 -1,576 Descending New York Center
Tue 04:38:03 PM 41.5981 -76.5353 98° East 394 453 13,300 -1,636 Descending New York Center
Tue 04:39:04 PM 41.5817 -76.3978 99° East 383 441 11,700 -1,686 Descending New York Center
Tue 04:40:04 PM 41.5669 -76.2692 99° East 338 389 9,900 -1,831 Descending New York Center
Tue 04:41:02 PM 41.5553 -76.1600 98° East 303 349 8,100 -1,714 Descending New York Center
Tue 04:42:03 PM 41.5300 -76.0747 112° Southeast 280 322 6,500 -1,426 Descending New York Center
Tue 04:43:04 PM 41.5131 -75.9875 105° East 261 300 5,200 -1,300 Descending New York Center
Tue 04:44:03 PM 41.4958 -75.9031 105° East 249 287 3,900 -756 Descending New York Center
Tue 04:45:03 PM 41.4786 -75.8217 106° East 237 273 3,700 -99 Descending New York Center
Tue 04:46:04 PM 41.4631 -75.7428 105° East 226 260 3,700 -49 Level New York Center
Tue 04:47:05 PM 41.4300 -75.6906 130° Southeast 205 236 3,600 -694 Descending New York Center
Tue 04:48:05 PM 41.3950 -75.6797 167° South 152 175 2,300 -1,179 Descending New York Center
Tue 04:49:02 PM 41.3606 -75.7050 209° Southwest 119 137 1,300 -1,053 Descending New York Center

Login

Don't have an account? Register now (free) for customized features, flight alerts, and more!